Ribeirao Pires, Brazil
Current Conditions -  °F | °C
As of 11:00 AM on Tuesday 21 Oct 2014 (Local Time) from SBST Reporting Station
Broken Clouds Broken Clouds  
Wind Chill: 75°   Ceiling: 7000
Heat Index: 75°   Visibility: 6mi
Dew Point: 59°   Wind: 8mph
Humidity: 57%   Direction: 130°SE
Pressure: 30.15"   Gusts: NA
Location:  23.72°S, 46.41°W
Report Text: SBST 211300Z 13007KT 9999 SCT030 BKN070 24/15 Q1021
Loading
Personal Weather Stations






























Interactive Weather Map
Tropical Storm Tracking
New forecast layout! Learn more

10-Day Weather Forecast

Advertisements
Track Severe Weather on mobile